Time;durP1;ratioP1;P1;durP2;ratioP2;P2;SDS_P1;SDS_P2;PMS_P1;PMS_P2;Temp;Humidity;BMP_temperature;BMP_pressure;BME280_temperature;BME280_humidity;BME280_pressure;Samples;Min_cycle;Max_cycle;Signal;HPM_P1;HPM_P2
2023/03/10 00:00:07;;;;;;;;;;;17.10;45.90;;;;;;10367224;28;835;-72
2023/03/10 00:05:02;;;;;;;;;;;17.00;45.80;;;;;;10366609;28;1906;-73
2023/03/10 00:09:58;;;;;;;;;;;17.10;45.90;;;;;;10366281;28;764;-72
2023/03/10 00:14:54;;;;;;;;;;;17.00;45.80;;;;;;10365880;28;810;-72
2023/03/10 00:19:49;;;;;;;;;;;17.00;45.90;;;;;;10366271;28;1021;-72
2023/03/10 00:24:44;;;;;;;;;;;17.00;46.00;;;;;;10366301;28;1909;-72
2023/03/10 00:29:40;;;;;;;;;;;17.00;46.00;;;;;;10365961;28;883;-72
2023/03/10 00:34:35;;;;;;;;;;;17.00;46.00;;;;;;10367129;28;846;-72
2023/03/10 00:39:30;;;;;;;;;;;17.00;46.10;;;;;;10365663;28;1136;-72
2023/03/10 00:44:27;;;;;;;;;;;17.00;46.10;;;;;;10365686;28;814;-72
2023/03/10 00:49:22;;;;;;;;;;;17.00;46.10;;;;;;10365659;28;1910;-72
2023/03/10 00:54:17;;;;;;;;;;;17.00;46.00;;;;;;10366171;28;865;-72
2023/03/10 00:59:13;;;;;;;;;;;17.00;46.20;;;;;;10365992;28;917;-73
2023/03/10 01:04:08;;;;;;;;;;;17.00;46.20;;;;;;10366002;28;870;-73
2023/03/10 01:09:03;;;;;;;;;;;17.00;46.10;;;;;;10364616;28;1957;-73
2023/03/10 01:13:59;;;;;;;;;;;17.00;46.70;;;;;;10365190;28;893;-73
2023/03/10 01:18:54;;;;;;;;;;;17.00;46.20;;;;;;10365264;28;795;-73
2023/03/10 01:23:49;;;;;;;;;;;17.00;46.10;;;;;;10367873;28;926;-72
2023/03/10 01:28:45;;;;;;;;;;;17.00;46.20;;;;;;10372200;28;1992;-72
2023/03/10 01:33:41;;;;;;;;;;;17.00;46.30;;;;;;10372841;28;806;-72
2023/03/10 01:38:36;;;;;;;;;;;17.00;46.40;;;;;;10372381;28;946;-72
2023/03/10 01:43:32;;;;;;;;;;;17.00;46.40;;;;;;10371470;28;1359;-72
2023/03/10 01:48:27;;;;;;;;;;;17.00;46.30;;;;;;10371589;28;1902;-73
2023/03/10 01:53:23;;;;;;;;;;;17.00;46.40;;;;;;10371911;28;842;-72
2023/03/10 01:58:18;;;;;;;;;;;17.00;46.40;;;;;;10371789;28;861;-72
2023/03/10 02:03:13;;;;;;;;;;;17.00;46.50;;;;;;10371457;28;999;-72
2023/03/10 02:08:09;;;;;;;;;;;17.00;46.40;;;;;;10371150;28;1898;-73
2023/03/10 02:13:04;;;;;;;;;;;17.00;46.40;;;;;;10371059;28;942;-72
2023/03/10 02:17:59;;;;;;;;;;;17.10;46.50;;;;;;10370485;28;882;-72
2023/03/10 02:22:55;;;;;;;;;;;17.00;46.40;;;;;;10370007;28;992;-73
2023/03/10 02:27:50;;;;;;;;;;;17.00;46.40;;;;;;10370439;28;1992;-72
2023/03/10 02:32:45;;;;;;;;;;;17.00;46.40;;;;;;10370917;28;878;-72
2023/03/10 02:37:41;;;;;;;;;;;17.00;46.40;;;;;;10368919;28;761;-73
2023/03/10 02:42:36;;;;;;;;;;;17.00;46.40;;;;;;10369303;28;2012;-73
2023/03/10 02:47:32;;;;;;;;;;;17.00;46.50;;;;;;10368982;28;1922;-73
2023/03/10 02:52:27;;;;;;;;;;;17.00;46.40;;;;;;10368962;28;871;-72
2023/03/10 02:57:22;;;;;;;;;;;17.00;46.40;;;;;;10368812;28;841;-73
2023/03/10 03:02:18;;;;;;;;;;;17.00;46.50;;;;;;10369310;28;878;-73
2023/03/10 03:07:13;;;;;;;;;;;17.00;46.50;;;;;;10368378;28;1906;-72
2023/03/10 03:12:08;;;;;;;;;;;17.00;46.50;;;;;;10367646;28;870;-73
2023/03/10 03:17:04;;;;;;;;;;;17.00;46.50;;;;;;10368643;28;886;-72
2023/03/10 03:22:00;;;;;;;;;;;17.00;46.60;;;;;;10368349;28;1055;-73
2023/03/10 03:26:55;;;;;;;;;;;17.00;46.60;;;;;;10367923;28;1977;-72
2023/03/10 03:31:51;;;;;;;;;;;17.00;46.60;;;;;;10368099;28;798;-73
2023/03/10 03:36:46;;;;;;;;;;;17.00;46.60;;;;;;10367312;28;842;-73
2023/03/10 03:41:42;;;;;;;;;;;17.00;46.60;;;;;;10367828;28;1432;-73
2023/03/10 03:46:37;;;;;;;;;;;17.00;46.50;;;;;;10367071;28;1909;-72
2023/03/10 03:51:32;;;;;;;;;;;17.00;46.50;;;;;;10367553;28;940;-73
2023/03/10 03:56:28;;;;;;;;;;;17.00;46.60;;;;;;10367339;28;854;-72
2023/03/10 04:01:23;;;;;;;;;;;17.00;46.60;;;;;;10366648;28;879;-72
2023/03/10 04:06:18;;;;;;;;;;;17.00;46.60;;;;;;10367014;28;1955;-72
2023/03/10 04:11:14;;;;;;;;;;;17.00;46.50;;;;;;10366373;28;985;-73
2023/03/10 04:16:09;;;;;;;;;;;17.00;46.60;;;;;;10367485;28;780;-73
2023/03/10 04:21:05;;;;;;;;;;;17.00;46.60;;;;;;10366776;28;858;-72
2023/03/10 04:26:00;;;;;;;;;;;17.00;46.50;;;;;;10366603;28;1906;-73
2023/03/10 04:30:55;;;;;;;;;;;17.00;46.50;;;;;;10365385;28;948;-73
2023/03/10 04:35:52;;;;;;;;;;;17.00;46.50;;;;;;10365895;28;811;-72
2023/03/10 04:40:47;;;;;;;;;;;16.90;46.50;;;;;;10365310;28;1254;-72
2023/03/10 04:45:42;;;;;;;;;;;17.00;46.50;;;;;;10366309;28;1917;-73
2023/03/10 04:50:38;;;;;;;;;;;17.00;46.50;;;;;;10366305;28;784;-73
2023/03/10 04:55:33;;;;;;;;;;;17.00;46.50;;;;;;10366188;28;869;-73
2023/03/10 05:00:29;;;;;;;;;;;17.00;46.50;;;;;;10372410;28;872;-73
2023/03/10 05:05:24;;;;;;;;;;;17.00;46.50;;;;;;10373481;28;1965;-72
2023/03/10 05:10:19;;;;;;;;;;;17.00;46.50;;;;;;10373519;28;984;-72
2023/03/10 05:15:15;;;;;;;;;;;17.00;46.50;;;;;;10372241;28;916;-72
2023/03/10 05:20:10;;;;;;;;;;;17.00;46.50;;;;;;10373222;28;859;-74
2023/03/10 05:25:05;;;;;;;;;;;17.10;46.50;;;;;;10372967;28;1971;-73
2023/03/10 05:30:01;;;;;;;;;;;17.10;46.50;;;;;;10372234;28;864;-74
2023/03/10 05:34:56;;;;;;;;;;;17.10;46.40;;;;;;10372047;28;969;-74
2023/03/10 05:39:51;;;;;;;;;;;17.20;46.40;;;;;;10371516;28;1286;-73
2023/03/10 05:44:47;;;;;;;;;;;17.20;46.40;;;;;;10371763;28;867;-73
2023/03/10 05:49:42;;;;;;;;;;;17.20;46.30;;;;;;10371569;28;1949;-74
2023/03/10 05:54:38;;;;;;;;;;;17.20;46.30;;;;;;10371334;28;835;-74
2023/03/10 05:59:33;;;;;;;;;;;17.20;46.30;;;;;;10371050;28;882;-74
2023/03/10 06:04:32;;;;;;;;;;;17.20;46.40;;;;;;10372124;28;880;-73
2023/03/10 06:09:27;;;;;;;;;;;17.20;46.30;;;;;;10370412;28;1969;-74
2023/03/10 06:14:22;;;;;;;;;;;17.20;46.30;;;;;;10371083;28;874;-74
2023/03/10 06:19:18;;;;;;;;;;;17.20;46.30;;;;;;10370921;28;926;-74
2023/03/10 06:24:13;;;;;;;;;;;17.30;46.30;;;;;;10370048;28;980;-74
2023/03/10 06:29:08;;;;;;;;;;;17.20;46.20;;;;;;10369860;28;1906;-73
2023/03/10 06:34:04;;;;;;;;;;;17.20;46.20;;;;;;10369102;28;843;-74
2023/03/10 06:38:59;;;;;;;;;;;17.30;46.20;;;;;;10369427;28;1155;-74
2023/03/10 06:43:54;;;;;;;;;;;17.20;46.20;;;;;;10370607;28;787;-74
2023/03/10 06:48:50;;;;;;;;;;;17.20;46.20;;;;;;10369100;28;1909;-76
2023/03/10 06:53:45;;;;;;;;;;;17.30;46.30;;;;;;10369036;28;834;-79
2023/03/10 06:58:41;;;;;;;;;;;17.30;46.30;;;;;;10368152;28;855;-76
2023/03/10 07:03:36;;;;;;;;;;;17.30;46.30;;;;;;10369251;28;870;-75
2023/03/10 07:08:31;;;;;;;;;;;17.20;46.40;;;;;;10369080;28;1906;-76
2023/03/10 07:13:27;;;;;;;;;;;17.20;46.50;;;;;;10369445;28;863;-76
2023/03/10 07:18:26;;;;;;;;;;;17.20;46.50;;;;;;10368617;28;890;-76
2023/03/10 07:23:21;;;;;;;;;;;17.10;46.50;;;;;;10367601;28;935;-76
2023/03/10 07:28:17;;;;;;;;;;;17.20;46.60;;;;;;10367634;28;1901;-76
2023/03/10 07:33:12;;;;;;;;;;;17.20;46.50;;;;;;10367533;28;810;-75
2023/03/10 07:38:08;;;;;;;;;;;17.20;46.50;;;;;;10367284;28;934;-75
2023/03/10 07:43:03;;;;;;;;;;;17.20;46.40;;;;;;10367220;28;1299;-75
2023/03/10 07:47:58;;;;;;;;;;;17.30;46.40;;;;;;10367543;28;1917;-75
2023/03/10 07:52:55;;;;;;;;;;;17.30;46.40;;;;;;10367496;28;881;-75
2023/03/10 07:57:50;;;;;;;;;;;17.20;46.30;;;;;;10366034;28;893;-74
2023/03/10 08:02:45;;;;;;;;;;;17.20;46.40;;;;;;10367141;28;964;-74
2023/03/10 08:07:42;;;;;;;;;;;17.20;46.40;;;;;;10367293;28;1968;-81
2023/03/10 08:12:37;;;;;;;;;;;17.30;46.40;;;;;;10365574;28;932;-79
2023/03/10 08:17:33;;;;;;;;;;;17.20;46.40;;;;;;10366913;28;866;-79
2023/03/10 08:22:28;;;;;;;;;;;17.20;46.50;;;;;;10366167;28;1162;-79
2023/03/10 08:27:23;;;;;;;;;;;17.30;46.40;;;;;;10365972;28;1965;-74
2023/03/10 08:32:19;;;;;;;;;;;17.30;46.40;;;;;;10367412;28;851;-74
2023/03/10 08:37:14;;;;;;;;;;;17.30;46.40;;;;;;10374418;28;786;-77
2023/03/10 08:42:09;;;;;;;;;;;17.30;46.40;;;;;;10374426;28;1152;-72
2023/03/10 08:47:05;;;;;;;;;;;17.30;46.30;;;;;;10374535;28;1914;-71
2023/03/10 08:52:00;;;;;;;;;;;17.50;46.90;;;;;;10374169;28;880;-79
2023/03/10 08:56:56;;;;;;;;;;;17.60;47.30;;;;;;10373585;28;964;-78
2023/03/10 09:01:51;;;;;;;;;;;17.50;47.20;;;;;;10373411;28;886;-76
2023/03/10 09:06:47;;;;;;;;;;;17.40;47.80;;;;;;10373215;28;1901;-76
2023/03/10 09:11:42;;;;;;;;;;;17.40;47.10;;;;;;10373914;28;807;-77
2023/03/10 09:16:38;;;;;;;;;;;17.40;47.10;;;;;;10372849;28;985;-77
2023/03/10 09:21:33;;;;;;;;;;;17.40;47.00;;;;;;10373207;28;814;-79
2023/03/10 09:26:29;;;;;;;;;;;17.40;47.00;;;;;;10372251;28;1906;-79
2023/03/10 09:31:24;;;;;;;;;;;17.40;46.90;;;;;;10372336;28;791;-79
2023/03/10 09:36:19;;;;;;;;;;;17.40;46.90;;;;;;10372234;28;929;-79
2023/03/10 09:41:15;;;;;;;;;;;17.40;46.90;;;;;;10371972;28;1173;-79
2023/03/10 09:46:10;;;;;;;;;;;17.40;46.90;;;;;;10370968;28;1934;-79
2023/03/10 09:51:06;;;;;;;;;;;17.40;46.80;;;;;;10371438;28;857;-79
2023/03/10 09:56:01;;;;;;;;;;;17.40;47.40;;;;;;10371309;28;803;-79
2023/03/10 10:00:56;;;;;;;;;;;17.40;46.90;;;;;;10371659;28;811;-79
2023/03/10 10:05:52;;;;;;;;;;;17.40;46.90;;;;;;10371396;28;1969;-79
2023/03/10 10:10:47;;;;;;;;;;;17.40;46.90;;;;;;10371059;28;858;-79
2023/03/10 10:15:44;;;;;;;;;;;17.30;46.70;;;;;;10370540;28;929;-70
2023/03/10 10:20:39;;;;;;;;;;;17.40;46.70;;;;;;10370320;28;807;-74
2023/03/10 10:25:35;;;;;;;;;;;17.40;46.90;;;;;;10371207;28;1930;-74
2023/03/10 10:30:30;;;;;;;;;;;17.60;47.50;;;;;;10370194;28;920;-73
2023/03/10 10:35:26;;;;;;;;;;;17.60;47.70;;;;;;10369708;28;837;-73
2023/03/10 10:40:21;;;;;;;;;;;17.70;47.90;;;;;;10369446;28;1145;-75
2023/03/10 10:45:17;;;;;;;;;;;17.70;48.10;;;;;;10369308;28;1957;-75
2023/03/10 10:50:12;;;;;;;;;;;17.60;48.00;;;;;;10369648;28;958;-76
2023/03/10 10:55:07;;;;;;;;;;;17.60;47.90;;;;;;10368839;28;902;-74
2023/03/10 11:00:03;;;;;;;;;;;17.50;47.70;;;;;;10368428;28;761;-75
2023/03/10 11:04:58;;;;;;;;;;;17.50;47.60;;;;;;10368207;28;900;-75
2023/03/10 11:09:54;;;;;;;;;;;17.60;47.50;;;;;;10367269;28;1925;-75
2023/03/10 11:14:51;;;;;;;;;;;17.50;47.30;;;;;;10367365;28;894;-75
2023/03/10 11:19:48;;;;;;;;;;;17.50;47.40;;;;;;10368174;28;877;-75
2023/03/10 11:24:43;;;;;;;;;;;17.50;47.30;;;;;;10367474;28;791;-75
2023/03/10 11:29:39;;;;;;;;;;;17.50;47.10;;;;;;10367464;28;1969;-75
2023/03/10 11:34:34;;;;;;;;;;;17.50;47.10;;;;;;10367204;28;856;-75
2023/03/10 11:39:29;;;;;;;;;;;17.50;47.10;;;;;;10366862;28;1412;-75
2023/03/10 11:44:25;;;;;;;;;;;17.60;47.10;;;;;;10367448;28;851;-75
2023/03/10 11:49:26;;;;;;;;;;;17.60;47.00;;;;;;10367420;28;1985;-75
2023/03/10 11:54:21;;;;;;;;;;;17.60;47.00;;;;;;10366587;28;860;-74
2023/03/10 11:59:16;;;;;;;;;;;17.50;46.90;;;;;;10366431;28;953;-75
2023/03/10 12:04:12;;;;;;;;;;;17.50;46.80;;;;;;10366486;28;795;-75
2023/03/10 12:09:07;;;;;;;;;;;17.50;47.40;;;;;;10366189;28;1902;-75
2023/03/10 12:14:03;;;;;;;;;;;17.50;46.80;;;;;;10367159;28;800;-74
2023/03/10 12:18:58;;;;;;;;;;;17.50;46.60;;;;;;10366535;28;885;-75
2023/03/10 12:23:54;;;;;;;;;;;17.50;46.70;;;;;;10366298;28;765;-73
2023/03/10 12:28:49;;;;;;;;;;;17.50;46.60;;;;;;10365987;28;1906;-73
2023/03/10 12:33:45;;;;;;;;;;;17.50;46.50;;;;;;10366599;28;861;-75
2023/03/10 12:38:40;;;;;;;;;;;17.50;46.50;;;;;;10365726;28;952;-74
2023/03/10 12:43:36;;;;;;;;;;;17.50;46.50;;;;;;10365102;28;1265;-75
2023/03/10 12:48:31;;;;;;;;;;;17.50;46.60;;;;;;10365672;28;1906;-75
2023/03/10 12:53:26;;;;;;;;;;;17.50;46.50;;;;;;10365666;28;794;-79
2023/03/10 12:58:22;;;;;;;;;;;17.50;46.40;;;;;;10366166;28;854;-75
2023/03/10 13:03:17;;;;;;;;;;;17.50;46.60;;;;;;10365070;28;868;-74
2023/03/10 13:08:12;;;;;;;;;;;17.50;46.60;;;;;;10365754;28;1959;-75
2023/03/10 13:13:08;;;;;;;;;;;17.50;46.50;;;;;;10365280;28;838;-75
2023/03/10 13:18:03;;;;;;;;;;;17.50;46.50;;;;;;10366726;28;757;-75
2023/03/10 13:22:59;;;;;;;;;;;17.50;46.50;;;;;;10372664;28;774;-74
2023/03/10 13:27:56;;;;;;;;;;;17.50;46.50;;;;;;10373012;28;1901;-75
2023/03/10 13:32:52;;;;;;;;;;;17.50;46.50;;;;;;10371603;28;968;-75
2023/03/10 13:37:47;;;;;;;;;;;17.50;46.50;;;;;;10371844;28;1146;-75
2023/03/10 13:42:43;;;;;;;;;;;17.50;46.40;;;;;;10372066;28;1447;-75
2023/03/10 13:47:39;;;;;;;;;;;17.50;46.50;;;;;;10371723;28;1918;-75
2023/03/10 13:52:34;;;;;;;;;;;17.50;46.60;;;;;;10371118;28;872;-75
2023/03/10 13:57:30;;;;;;;;;;;17.50;46.60;;;;;;10371487;28;904;-77
2023/03/10 14:02:26;;;;;;;;;;;17.50;46.50;;;;;;10370696;28;956;-75
2023/03/10 14:07:21;;;;;;;;;;;17.50;46.60;;;;;;10370559;28;1902;-73
2023/03/10 14:12:16;;;;;;;;;;;17.50;46.60;;;;;;10369963;28;1123;-73
2023/03/10 14:17:12;;;;;;;;;;;17.50;46.50;;;;;;10369802;28;996;-73
2023/03/10 14:22:07;;;;;;;;;;;17.50;46.50;;;;;;10370118;28;934;-76
2023/03/10 14:27:02;;;;;;;;;;;17.50;46.50;;;;;;10369755;28;1902;-76
2023/03/10 14:31:58;;;;;;;;;;;17.50;46.50;;;;;;10368814;28;870;-74
2023/03/10 14:36:53;;;;;;;;;;;17.50;46.60;;;;;;10369474;28;945;-76
2023/03/10 14:41:49;;;;;;;;;;;17.50;46.50;;;;;;10370056;28;1159;-76
2023/03/10 14:46:46;;;;;;;;;;;17.50;46.50;;;;;;10368411;28;2232;-75
2023/03/10 14:51:41;;;;;;;;;;;17.50;46.50;;;;;;10368796;28;903;-74
2023/03/10 14:56:37;;;;;;;;;;;17.50;46.50;;;;;;10368691;28;830;-76
2023/03/10 15:01:32;;;;;;;;;;;17.50;46.50;;;;;;10369375;28;879;-76
2023/03/10 15:06:27;;;;;;;;;;;17.50;46.50;;;;;;10368896;28;1906;-76
2023/03/10 15:11:23;;;;;;;;;;;17.60;46.60;;;;;;10368509;28;905;-76
2023/03/10 15:16:18;;;;;;;;;;;17.60;46.60;;;;;;10368197;28;837;-75
2023/03/10 15:21:14;;;;;;;;;;;17.60;46.60;;;;;;10368632;28;819;-76
2023/03/10 15:26:10;;;;;;;;;;;17.60;46.60;;;;;;10367836;28;2298;-75
2023/03/10 15:31:05;;;;;;;;;;;17.60;46.60;;;;;;10368491;28;862;-75
2023/03/10 15:36:01;;;;;;;;;;;17.60;46.60;;;;;;10367516;28;850;-81
2023/03/10 15:40:56;;;;;;;;;;;17.60;46.70;;;;;;10367006;28;1222;-75
2023/03/10 15:45:51;;;;;;;;;;;17.60;46.60;;;;;;10367725;28;1937;-76
2023/03/10 15:50:47;;;;;;;;;;;17.60;46.60;;;;;;10367133;28;776;-76
2023/03/10 15:55:42;;;;;;;;;;;17.60;46.60;;;;;;10367488;28;860;-75
2023/03/10 16:00:38;;;;;;;;;;;17.50;46.50;;;;;;10366821;28;841;-75
2023/03/10 16:05:33;;;;;;;;;;;17.50;46.50;;;;;;10366576;28;1902;-75
2023/03/10 16:10:28;;;;;;;;;;;17.60;46.60;;;;;;10367080;28;791;-75
2023/03/10 16:15:24;;;;;;;;;;;17.60;46.50;;;;;;10367166;28;893;-76
2023/03/10 16:20:20;;;;;;;;;;;17.60;46.50;;;;;;10366341;28;865;-76
2023/03/10 16:25:15;;;;;;;;;;;17.60;46.50;;;;;;10366980;28;1957;-76
2023/03/10 16:30:10;;;;;;;;;;;17.50;46.40;;;;;;10366125;28;909;-75
2023/03/10 16:35:06;;;;;;;;;;;17.40;46.40;;;;;;10366644;28;776;-76
2023/03/10 16:40:02;;;;;;;;;;;17.40;46.40;;;;;;10365536;28;1300;-75
2023/03/10 16:44:58;;;;;;;;;;;17.40;46.40;;;;;;10366425;28;892;-76
2023/03/10 16:49:53;;;;;;;;;;;17.50;46.30;;;;;;10366367;28;1914;-76
2023/03/10 16:54:48;;;;;;;;;;;17.40;46.30;;;;;;10370174;28;917;-75
2023/03/10 16:59:44;;;;;;;;;;;17.50;46.30;;;;;;10374292;28;779;-76
2023/03/10 17:04:39;;;;;;;;;;;17.40;46.20;;;;;;10373617;28;1591;-75
2023/03/10 17:09:36;;;;;;;;;;;17.40;46.50;;;;;;10372809;28;1957;-75
2023/03/10 17:14:32;;;;;;;;;;;17.50;46.20;;;;;;10373554;28;810;-75
2023/03/10 17:19:28;;;;;;;;;;;17.50;46.20;;;;;;10374225;28;895;-75
2023/03/10 17:24:24;;;;;;;;;;;17.50;46.20;;;;;;10373291;28;842;-75
2023/03/10 17:29:19;;;;;;;;;;;17.50;45.70;;;;;;10355196;28;1943;-75
2023/03/10 17:34:14;;;;;;;;;;;17.50;45.60;;;;;;10371689;28;828;-75
2023/03/10 17:39:10;;;;;;;;;;;17.60;45.70;;;;;;10371936;28;1369;-75
2023/03/10 17:44:05;;;;;;;;;;;17.60;45.60;;;;;;10373198;28;1020;-78
2023/03/10 17:49:01;;;;;;;;;;;17.60;45.20;;;;;;10371697;28;1986;-75
2023/03/10 17:53:56;;;;;;;;;;;17.60;45.20;;;;;;10371782;28;849;-75
2023/03/10 17:58:51;;;;;;;;;;;17.60;44.90;;;;;;10371355;28;913;-75
2023/03/10 18:03:47;;;;;;;;;;;17.60;44.60;;;;;;10371514;28;788;-75
2023/03/10 18:08:42;;;;;;;;;;;17.50;44.40;;;;;;10371306;28;1965;-75
2023/03/10 18:13:37;;;;;;;;;;;17.60;44.40;;;;;;10371991;28;893;-75
2023/03/10 18:18:33;;;;;;;;;;;17.60;44.40;;;;;;10370560;28;795;-75
2023/03/10 18:23:28;;;;;;;;;;;17.60;44.40;;;;;;10371801;28;873;-76
2023/03/10 18:28:25;;;;;;;;;;;17.60;44.20;;;;;;10370117;28;1971;-75
2023/03/10 18:33:20;;;;;;;;;;;17.60;44.30;;;;;;10370525;28;862;-75
2023/03/10 18:38:16;;;;;;;;;;;17.60;44.20;;;;;;10369156;28;968;-75
2023/03/10 18:43:12;;;;;;;;;;;17.60;44.20;;;;;;10369138;28;1282;-75
2023/03/10 18:48:07;;;;;;;;;;;17.60;44.20;;;;;;10369883;28;1902;-75
2023/03/10 18:53:02;;;;;;;;;;;17.60;44.30;;;;;;10369208;28;893;-76
2023/03/10 18:57:58;;;;;;;;;;;17.60;44.00;;;;;;10369648;28;872;-76
2023/03/10 19:02:53;;;;;;;;;;;17.60;43.90;;;;;;10369490;28;874;-75
2023/03/10 19:07:49;;;;;;;;;;;17.60;43.90;;;;;;10369374;28;1971;-75
2023/03/10 19:12:44;;;;;;;;;;;17.60;43.80;;;;;;10368458;28;989;-75
2023/03/10 19:17:39;;;;;;;;;;;17.50;43.50;;;;;;10367883;28;901;-75
2023/03/10 19:22:35;;;;;;;;;;;17.50;43.40;;;;;;10368094;28;765;-78
2023/03/10 19:27:30;;;;;;;;;;;17.40;43.20;;;;;;10367808;28;1914;-74
2023/03/10 19:32:25;;;;;;;;;;;17.50;43.00;;;;;;10367622;28;873;-80
2023/03/10 19:37:23;;;;;;;;;;;17.40;42.70;;;;;;10368869;28;858;-73
2023/03/10 19:42:18;;;;;;;;;;;17.60;43.30;;;;;;10367236;28;1316;-73
2023/03/10 19:47:16;;;;;;;;;;;17.60;43.20;;;;;;10366834;28;1906;-72
2023/03/10 19:52:11;;;;;;;;;;;17.60;43.10;;;;;;10366687;28;964;-72
2023/03/10 19:57:11;;;;;;;;;;;17.70;43.20;;;;;;10366577;28;823;-72
2023/03/10 20:02:07;;;;;;;;;;;17.70;43.20;;;;;;10366390;28;919;-72
2023/03/10 20:07:02;;;;;;;;;;;17.80;43.50;;;;;;10366222;28;1965;-73
2023/03/10 20:11:58;;;;;;;;;;;17.80;43.40;;;;;;10365638;28;921;-73
2023/03/10 20:16:53;;;;;;;;;;;17.80;43.60;;;;;;10366035;28;847;-73
2023/03/10 20:21:49;;;;;;;;;;;17.80;43.60;;;;;;10366540;28;1065;-73
2023/03/10 20:26:44;;;;;;;;;;;17.80;43.70;;;;;;10365718;28;1897;-73
2023/03/10 20:31:40;;;;;;;;;;;17.80;43.70;;;;;;10373098;28;827;-73
2023/03/10 20:36:35;;;;;;;;;;;17.90;43.80;;;;;;10374281;28;857;-73
2023/03/10 20:41:30;;;;;;;;;;;17.80;43.80;;;;;;10374737;28;1290;-73
2023/03/10 20:46:26;;;;;;;;;;;17.80;43.90;;;;;;10373915;28;1971;-73
2023/03/10 20:51:22;;;;;;;;;;;17.80;43.90;;;;;;10373984;28;917;-72
2023/03/10 20:56:17;;;;;;;;;;;17.80;43.80;;;;;;10373384;28;853;-72
2023/03/10 21:01:13;;;;;;;;;;;17.80;43.90;;;;;;10373299;28;762;-72
2023/03/10 21:06:08;;;;;;;;;;;17.80;43.90;;;;;;10373652;28;1902;-72
2023/03/10 21:11:04;;;;;;;;;;;17.80;44.10;;;;;;10372947;28;780;-73
2023/03/10 21:15:59;;;;;;;;;;;17.80;43.90;;;;;;10373298;28;813;-73
2023/03/10 21:20:54;;;;;;;;;;;17.80;44.00;;;;;;10373427;28;866;-73
2023/03/10 21:25:50;;;;;;;;;;;17.80;44.20;;;;;;10373445;28;1977;-73
2023/03/10 21:30:45;;;;;;;;;;;17.80;44.50;;;;;;10372806;28;817;-73
2023/03/10 21:35:41;;;;;;;;;;;17.80;44.50;;;;;;10372072;28;829;-73
2023/03/10 21:40:37;;;;;;;;;;;17.70;44.40;;;;;;10371833;28;1381;-73
2023/03/10 21:45:36;;;;;;;;;;;17.70;44.60;;;;;;10371577;28;1978;-73
2023/03/10 21:50:31;;;;;;;;;;;17.70;44.60;;;;;;10371399;28;869;-73
2023/03/10 21:55:28;;;;;;;;;;;17.80;44.60;;;;;;10371842;28;835;-73
2023/03/10 22:00:23;;;;;;;;;;;17.70;44.60;;;;;;10370997;28;993;-73
2023/03/10 22:05:19;;;;;;;;;;;17.70;44.60;;;;;;10370940;28;795;-73
2023/03/10 22:10:14;;;;;;;;;;;17.70;44.50;;;;;;10371079;28;1972;-73
2023/03/10 22:15:09;;;;;;;;;;;17.70;44.40;;;;;;10370529;28;877;-73
2023/03/10 22:20:07;;;;;;;;;;;17.70;44.30;;;;;;10370342;28;917;-73
2023/03/10 22:25:02;;;;;;;;;;;17.70;44.40;;;;;;10370334;28;954;-74
2023/03/10 22:29:57;;;;;;;;;;;17.70;44.60;;;;;;10370153;28;1906;-74
2023/03/10 22:34:53;;;;;;;;;;;17.60;44.60;;;;;;10370123;28;921;-74
2023/03/10 22:39:48;;;;;;;;;;;17.70;44.60;;;;;;10368996;28;1519;-73
2023/03/10 22:44:44;;;;;;;;;;;17.60;44.30;;;;;;10369635;28;853;-74
2023/03/10 22:49:39;;;;;;;;;;;17.60;44.40;;;;;;10370116;28;1917;-74
2023/03/10 22:54:35;;;;;;;;;;;17.60;44.20;;;;;;10368422;28;912;-73
2023/03/10 22:59:30;;;;;;;;;;;17.60;44.30;;;;;;10368982;28;1579;-73
2023/03/10 23:04:26;;;;;;;;;;;17.60;44.30;;;;;;10368196;28;1037;-74
2023/03/10 23:09:21;;;;;;;;;;;17.60;44.50;;;;;;10368324;28;1965;-73
2023/03/10 23:14:16;;;;;;;;;;;17.60;44.40;;;;;;10369693;28;908;-74
2023/03/10 23:19:12;;;;;;;;;;;17.50;44.40;;;;;;10367672;28;1004;-74
2023/03/10 23:24:07;;;;;;;;;;;17.60;44.30;;;;;;10368707;28;785;-73
2023/03/10 23:29:03;;;;;;;;;;;17.60;44.30;;;;;;10367864;28;1993;-73
2023/03/10 23:33:58;;;;;;;;;;;17.60;44.30;;;;;;10367740;28;860;-73
2023/03/10 23:38:53;;;;;;;;;;;17.60;44.30;;;;;;10367971;28;1103;-74
2023/03/10 23:43:50;;;;;;;;;;;17.60;44.30;;;;;;10367469;28;752;-73
2023/03/10 23:48:46;;;;;;;;;;;17.60;44.30;;;;;;10366464;28;1977;-74
2023/03/10 23:53:41;;;;;;;;;;;17.60;44.50;;;;;;10367344;28;782;-73
2023/03/10 23:58:37;;;;;;;;;;;17.60;44.20;;;;;;10367005;28;811;-73
